sensor_id;sensor_type;location;lat;lon;timestamp;P1;durP1;ratioP1;P2;durP2;ratioP2
18748;SDS011;9503;53.560;10.246;2023-12-22T00:02:16;15.13;;;3.37;;
18748;SDS011;9503;53.560;10.246;2023-12-22T00:04:43;16.50;;;3.00;;
18748;SDS011;9503;53.560;10.246;2023-12-22T00:07:10;11.00;;;2.80;;
18748;SDS011;9503;53.560;10.246;2023-12-22T00:09:38;18.93;;;3.57;;
18748;SDS011;9503;53.560;10.246;2023-12-22T00:12:04;16.73;;;4.43;;
18748;SDS011;9503;53.560;10.246;2023-12-22T00:14:31;18.60;;;3.93;;
18748;SDS011;9503;53.560;10.246;2023-12-22T00:16:58;22.67;;;3.17;;
18748;SDS011;9503;53.560;10.246;2023-12-22T00:19:25;22.07;;;4.30;;
18748;SDS011;9503;53.560;10.246;2023-12-22T00:21:51;15.93;;;3.07;;
18748;SDS011;9503;53.560;10.246;2023-12-22T00:24:18;21.13;;;3.53;;
18748;SDS011;9503;53.560;10.246;2023-12-22T00:26:46;17.77;;;3.77;;
18748;SDS011;9503;53.560;10.246;2023-12-22T00:29:12;21.70;;;4.60;;
18748;SDS011;9503;53.560;10.246;2023-12-22T00:31:39;17.77;;;3.33;;
18748;SDS011;9503;53.560;10.246;2023-12-22T00:34:06;19.77;;;4.30;;
18748;SDS011;9503;53.560;10.246;2023-12-22T00:36:32;20.33;;;3.30;;
18748;SDS011;9503;53.560;10.246;2023-12-22T00:38:59;20.03;;;4.27;;
18748;SDS011;9503;53.560;10.246;2023-12-22T00:41:25;23.60;;;4.27;;
18748;SDS011;9503;53.560;10.246;2023-12-22T00:43:53;23.27;;;5.00;;
18748;SDS011;9503;53.560;10.246;2023-12-22T00:46:19;21.93;;;3.60;;
18748;SDS011;9503;53.560;10.246;2023-12-22T00:48:46;27.33;;;4.53;;
18748;SDS011;9503;53.560;10.246;2023-12-22T00:51:12;13.60;;;3.20;;
18748;SDS011;9503;53.560;10.246;2023-12-22T00:53:41;26.80;;;4.13;;
18748;SDS011;9503;53.560;10.246;2023-12-22T00:56:08;22.50;;;3.40;;
18748;SDS011;9503;53.560;10.246;2023-12-22T00:58:34;21.33;;;4.60;;
18748;SDS011;9503;53.560;10.246;2023-12-22T01:01:02;17.23;;;3.83;;
18748;SDS011;9503;53.560;10.246;2023-12-22T01:03:29;15.67;;;3.63;;
18748;SDS011;9503;53.560;10.246;2023-12-22T01:05:56;17.60;;;3.20;;
18748;SDS011;9503;53.560;10.246;2023-12-22T01:08:22;17.57;;;3.57;;
18748;SDS011;9503;53.560;10.246;2023-12-22T01:10:49;18.30;;;4.10;;
18748;SDS011;9503;53.560;10.246;2023-12-22T01:13:15;13.07;;;4.07;;
18748;SDS011;9503;53.560;10.246;2023-12-22T01:15:42;13.33;;;2.90;;
18748;SDS011;9503;53.560;10.246;2023-12-22T01:18:10;22.23;;;2.93;;
18748;SDS011;9503;53.560;10.246;2023-12-22T01:20:37;23.67;;;3.67;;
18748;SDS011;9503;53.560;10.246;2023-12-22T01:23:04;23.57;;;4.40;;
18748;SDS011;9503;53.560;10.246;2023-12-22T01:25:30;23.03;;;3.33;;
18748;SDS011;9503;53.560;10.246;2023-12-22T01:27:57;29.23;;;4.70;;
18748;SDS011;9503;53.560;10.246;2023-12-22T01:30:24;19.90;;;3.83;;
18748;SDS011;9503;53.560;10.246;2023-12-22T01:32:50;26.93;;;4.20;;
18748;SDS011;9503;53.560;10.246;2023-12-22T01:35:18;16.50;;;4.03;;
18748;SDS011;9503;53.560;10.246;2023-12-22T01:37:45;16.00;;;2.87;;
18748;SDS011;9503;53.560;10.246;2023-12-22T01:40:13;18.93;;;3.33;;
18748;SDS011;9503;53.560;10.246;2023-12-22T01:42:40;19.13;;;3.03;;
18748;SDS011;9503;53.560;10.246;2023-12-22T01:45:07;16.27;;;2.90;;
18748;SDS011;9503;53.560;10.246;2023-12-22T01:47:34;8.43;;;2.57;;
18748;SDS011;9503;53.560;10.246;2023-12-22T01:50:02;9.43;;;2.10;;
18748;SDS011;9503;53.560;10.246;2023-12-22T01:52:30;7.80;;;2.17;;
18748;SDS011;9503;53.560;10.246;2023-12-22T01:54:57;5.80;;;1.80;;
18748;SDS011;9503;53.560;10.246;2023-12-22T01:57:24;6.67;;;2.37;;
18748;SDS011;9503;53.560;10.246;2023-12-22T01:59:50;5.97;;;1.50;;
18748;SDS011;9503;53.560;10.246;2023-12-22T02:02:17;6.47;;;1.47;;
18748;SDS011;9503;53.560;10.246;2023-12-22T02:04:44;10.43;;;1.50;;
18748;SDS011;9503;53.560;10.246;2023-12-22T02:07:12;5.77;;;1.53;;
18748;SDS011;9503;53.560;10.246;2023-12-22T02:09:40;6.47;;;1.10;;
18748;SDS011;9503;53.560;10.246;2023-12-22T02:12:06;4.63;;;1.30;;
18748;SDS011;9503;53.560;10.246;2023-12-22T02:14:33;2.73;;;1.10;;
18748;SDS011;9503;53.560;10.246;2023-12-22T02:17:02;7.93;;;1.40;;
18748;SDS011;9503;53.560;10.246;2023-12-22T02:19:41;3.50;;;1.30;;
18748;SDS011;9503;53.560;10.246;2023-12-22T02:22:09;3.87;;;1.23;;
18748;SDS011;9503;53.560;10.246;2023-12-22T02:24:38;6.97;;;1.50;;
18748;SDS011;9503;53.560;10.246;2023-12-22T02:27:06;2.93;;;1.13;;
18748;SDS011;9503;53.560;10.246;2023-12-22T02:29:41;5.40;;;1.57;;
18748;SDS011;9503;53.560;10.246;2023-12-22T02:32:13;2.67;;;1.10;;
18748;SDS011;9503;53.560;10.246;2023-12-22T02:34:49;7.67;;;1.43;;
18748;SDS011;9503;53.560;10.246;2023-12-22T02:37:18;8.63;;;2.07;;
18748;SDS011;9503;53.560;10.246;2023-12-22T02:39:49;5.67;;;1.70;;
18748;SDS011;9503;53.560;10.246;2023-12-22T02:42:16;5.43;;;1.43;;
18748;SDS011;9503;53.560;10.246;2023-12-22T02:44:45;8.83;;;1.90;;
18748;SDS011;9503;53.560;10.246;2023-12-22T02:47:11;8.03;;;1.60;;
18748;SDS011;9503;53.560;10.246;2023-12-22T02:49:38;6.00;;;1.50;;
18748;SDS011;9503;53.560;10.246;2023-12-22T02:52:05;10.30;;;2.20;;
18748;SDS011;9503;53.560;10.246;2023-12-22T02:54:31;6.00;;;2.13;;
18748;SDS011;9503;53.560;10.246;2023-12-22T02:57:00;17.87;;;2.47;;
18748;SDS011;9503;53.560;10.246;2023-12-22T02:59:26;9.80;;;2.00;;
18748;SDS011;9503;53.560;10.246;2023-12-22T03:01:53;9.03;;;1.97;;
18748;SDS011;9503;53.560;10.246;2023-12-22T03:04:20;9.57;;;1.87;;
18748;SDS011;9503;53.560;10.246;2023-12-22T03:06:46;11.63;;;1.57;;
18748;SDS011;9503;53.560;10.246;2023-12-22T03:09:13;7.90;;;1.63;;
18748;SDS011;9503;53.560;10.246;2023-12-22T03:11:40;8.13;;;1.60;;
18748;SDS011;9503;53.560;10.246;2023-12-22T03:14:07;10.60;;;1.97;;
18748;SDS011;9503;53.560;10.246;2023-12-22T03:16:35;7.33;;;1.40;;
18748;SDS011;9503;53.560;10.246;2023-12-22T03:19:01;7.80;;;2.00;;
18748;SDS011;9503;53.560;10.246;2023-12-22T03:21:28;3.63;;;1.30;;
18748;SDS011;9503;53.560;10.246;2023-12-22T03:23:54;6.10;;;1.30;;
18748;SDS011;9503;53.560;10.246;2023-12-22T03:26:21;3.63;;;1.00;;
18748;SDS011;9503;53.560;10.246;2023-12-22T03:28:48;2.57;;;1.23;;
18748;SDS011;9503;53.560;10.246;2023-12-22T03:31:15;3.77;;;0.90;;
18748;SDS011;9503;53.560;10.246;2023-12-22T03:33:42;3.83;;;1.07;;
18748;SDS011;9503;53.560;10.246;2023-12-22T03:36:09;7.30;;;1.20;;
18748;SDS011;9503;53.560;10.246;2023-12-22T03:38:35;7.70;;;1.43;;
18748;SDS011;9503;53.560;10.246;2023-12-22T03:41:02;4.90;;;1.20;;
18748;SDS011;9503;53.560;10.246;2023-12-22T03:43:29;3.13;;;1.27;;
18748;SDS011;9503;53.560;10.246;2023-12-22T03:45:56;8.57;;;1.63;;
18748;SDS011;9503;53.560;10.246;2023-12-22T03:48:24;4.63;;;0.97;;
18748;SDS011;9503;53.560;10.246;2023-12-22T03:50:51;3.77;;;1.30;;
18748;SDS011;9503;53.560;10.246;2023-12-22T03:53:17;7.10;;;1.07;;
18748;SDS011;9503;53.560;10.246;2023-12-22T03:55:44;5.10;;;1.13;;
18748;SDS011;9503;53.560;10.246;2023-12-22T03:58:11;10.27;;;1.37;;
18748;SDS011;9503;53.560;10.246;2023-12-22T04:00:38;8.67;;;1.23;;
18748;SDS011;9503;53.560;10.246;2023-12-22T04:03:04;2.20;;;1.00;;
18748;SDS011;9503;53.560;10.246;2023-12-22T04:05:32;4.63;;;1.40;;
18748;SDS011;9503;53.560;10.246;2023-12-22T04:07:59;3.63;;;1.07;;
18748;SDS011;9503;53.560;10.246;2023-12-22T04:10:26;2.90;;;1.17;;
18748;SDS011;9503;53.560;10.246;2023-12-22T04:12:52;4.83;;;1.40;;
18748;SDS011;9503;53.560;10.246;2023-12-22T04:15:19;12.07;;;1.70;;
18748;SDS011;9503;53.560;10.246;2023-12-22T04:17:45;8.00;;;1.43;;
18748;SDS011;9503;53.560;10.246;2023-12-22T04:20:12;5.97;;;1.93;;
18748;SDS011;9503;53.560;10.246;2023-12-22T04:22:40;3.10;;;1.30;;
18748;SDS011;9503;53.560;10.246;2023-12-22T04:25:07;13.50;;;1.80;;
18748;SDS011;9503;53.560;10.246;2023-12-22T04:27:34;7.43;;;1.70;;
18748;SDS011;9503;53.560;10.246;2023-12-22T04:30:01;16.03;;;4.93;;
18748;SDS011;9503;53.560;10.246;2023-12-22T04:32:27;15.17;;;2.33;;
18748;SDS011;9503;53.560;10.246;2023-12-22T04:34:54;16.20;;;2.30;;
18748;SDS011;9503;53.560;10.246;2023-12-22T04:37:20;11.90;;;2.50;;
18748;SDS011;9503;53.560;10.246;2023-12-22T04:39:48;16.63;;;2.37;;
18748;SDS011;9503;53.560;10.246;2023-12-22T04:42:15;16.37;;;2.33;;
18748;SDS011;9503;53.560;10.246;2023-12-22T04:44:42;9.63;;;1.77;;
18748;SDS011;9503;53.560;10.246;2023-12-22T04:47:08;18.27;;;2.40;;
18748;SDS011;9503;53.560;10.246;2023-12-22T04:49:35;9.50;;;1.70;;
18748;SDS011;9503;53.560;10.246;2023-12-22T04:52:01;13.03;;;2.30;;
18748;SDS011;9503;53.560;10.246;2023-12-22T04:54:28;7.10;;;2.23;;
18748;SDS011;9503;53.560;10.246;2023-12-22T04:56:56;9.90;;;1.83;;
18748;SDS011;9503;53.560;10.246;2023-12-22T04:59:23;9.27;;;2.10;;
18748;SDS011;9503;53.560;10.246;2023-12-22T05:01:49;12.70;;;2.07;;
18748;SDS011;9503;53.560;10.246;2023-12-22T05:04:16;9.80;;;1.90;;
18748;SDS011;9503;53.560;10.246;2023-12-22T05:06:43;9.27;;;1.73;;
18748;SDS011;9503;53.560;10.246;2023-12-22T05:09:10;8.63;;;2.00;;
18748;SDS011;9503;53.560;10.246;2023-12-22T05:11:37;9.27;;;3.03;;
18748;SDS011;9503;53.560;10.246;2023-12-22T05:14:05;8.17;;;1.67;;
18748;SDS011;9503;53.560;10.246;2023-12-22T05:16:31;9.47;;;2.30;;
18748;SDS011;9503;53.560;10.246;2023-12-22T05:18:58;19.13;;;3.43;;
18748;SDS011;9503;53.560;10.246;2023-12-22T05:21:25;7.17;;;2.33;;
18748;SDS011;9503;53.560;10.246;2023-12-22T05:23:52;18.57;;;2.87;;
18748;SDS011;9503;53.560;10.246;2023-12-22T05:26:19;14.80;;;2.13;;
18748;SDS011;9503;53.560;10.246;2023-12-22T05:28:47;16.37;;;2.40;;
18748;SDS011;9503;53.560;10.246;2023-12-22T05:31:16;9.43;;;2.10;;
18748;SDS011;9503;53.560;10.246;2023-12-22T05:33:42;13.93;;;2.20;;
18748;SDS011;9503;53.560;10.246;2023-12-22T05:36:09;7.60;;;2.00;;
18748;SDS011;9503;53.560;10.246;2023-12-22T05:38:36;11.63;;;2.17;;
18748;SDS011;9503;53.560;10.246;2023-12-22T05:41:03;13.80;;;1.80;;
18748;SDS011;9503;53.560;10.246;2023-12-22T05:43:31;12.93;;;2.37;;
18748;SDS011;9503;53.560;10.246;2023-12-22T05:45:58;9.80;;;2.00;;
18748;SDS011;9503;53.560;10.246;2023-12-22T05:48:26;11.60;;;2.23;;
18748;SDS011;9503;53.560;10.246;2023-12-22T05:50:53;11.93;;;2.07;;
18748;SDS011;9503;53.560;10.246;2023-12-22T05:53:22;13.20;;;2.57;;
18748;SDS011;9503;53.560;10.246;2023-12-22T05:55:48;10.47;;;1.77;;
18748;SDS011;9503;53.560;10.246;2023-12-22T05:58:15;6.40;;;2.17;;
18748;SDS011;9503;53.560;10.246;2023-12-22T06:00:42;8.53;;;1.60;;
18748;SDS011;9503;53.560;10.246;2023-12-22T06:03:08;7.80;;;1.87;;
18748;SDS011;9503;53.560;10.246;2023-12-22T06:05:36;15.37;;;2.17;;
18748;SDS011;9503;53.560;10.246;2023-12-22T06:08:03;7.20;;;1.70;;
18748;SDS011;9503;53.560;10.246;2023-12-22T06:10:30;8.57;;;2.20;;
18748;SDS011;9503;53.560;10.246;2023-12-22T06:12:57;17.83;;;2.40;;
18748;SDS011;9503;53.560;10.246;2023-12-22T06:15:26;13.57;;;2.20;;
18748;SDS011;9503;53.560;10.246;2023-12-22T06:17:52;4.03;;;1.53;;
18748;SDS011;9503;53.560;10.246;2023-12-22T06:20:19;9.10;;;1.90;;
18748;SDS011;9503;53.560;10.246;2023-12-22T06:22:47;13.57;;;2.70;;
18748;SDS011;9503;53.560;10.246;2023-12-22T06:25:13;12.80;;;2.63;;
18748;SDS011;9503;53.560;10.246;2023-12-22T06:27:40;10.10;;;2.70;;
18748;SDS011;9503;53.560;10.246;2023-12-22T06:30:07;9.53;;;2.10;;
18748;SDS011;9503;53.560;10.246;2023-12-22T06:32:35;7.37;;;1.90;;
18748;SDS011;9503;53.560;10.246;2023-12-22T06:35:05;14.60;;;2.53;;
18748;SDS011;9503;53.560;10.246;2023-12-22T06:37:32;11.17;;;2.23;;
18748;SDS011;9503;53.560;10.246;2023-12-22T06:40:00;22.50;;;2.80;;
18748;SDS011;9503;53.560;10.246;2023-12-22T06:42:27;13.27;;;2.00;;
18748;SDS011;9503;53.560;10.246;2023-12-22T06:44:53;12.73;;;2.00;;
18748;SDS011;9503;53.560;10.246;2023-12-22T06:47:20;6.53;;;1.83;;
18748;SDS011;9503;53.560;10.246;2023-12-22T06:49:46;12.80;;;2.47;;
18748;SDS011;9503;53.560;10.246;2023-12-22T06:52:13;13.97;;;2.97;;
18748;SDS011;9503;53.560;10.246;2023-12-22T06:54:39;12.37;;;2.23;;
18748;SDS011;9503;53.560;10.246;2023-12-22T06:57:07;12.07;;;2.53;;
18748;SDS011;9503;53.560;10.246;2023-12-22T06:59:34;19.37;;;3.50;;
18748;SDS011;9503;53.560;10.246;2023-12-22T07:02:00;16.07;;;2.43;;
18748;SDS011;9503;53.560;10.246;2023-12-22T07:04:27;10.87;;;2.67;;
18748;SDS011;9503;53.560;10.246;2023-12-22T07:06:54;12.53;;;2.20;;
18748;SDS011;9503;53.560;10.246;2023-12-22T07:09:30;13.97;;;2.60;;
18748;SDS011;9503;53.560;10.246;2023-12-22T07:11:57;17.47;;;3.00;;
18748;SDS011;9503;53.560;10.246;2023-12-22T07:14:25;11.27;;;2.60;;
18748;SDS011;9503;53.560;10.246;2023-12-22T07:16:51;11.17;;;2.77;;
18748;SDS011;9503;53.560;10.246;2023-12-22T07:19:18;17.87;;;2.60;;
18748;SDS011;9503;53.560;10.246;2023-12-22T07:21:45;12.03;;;2.73;;
18748;SDS011;9503;53.560;10.246;2023-12-22T07:24:11;19.40;;;3.77;;
18748;SDS011;9503;53.560;10.246;2023-12-22T07:26:38;18.20;;;4.13;;
18748;SDS011;9503;53.560;10.246;2023-12-22T07:29:04;17.90;;;3.90;;
18748;SDS011;9503;53.560;10.246;2023-12-22T07:31:32;24.13;;;3.50;;
18748;SDS011;9503;53.560;10.246;2023-12-22T07:33:59;15.67;;;3.80;;
18748;SDS011;9503;53.560;10.246;2023-12-22T07:36:26;22.00;;;3.20;;
18748;SDS011;9503;53.560;10.246;2023-12-22T07:38:53;25.70;;;3.90;;
18748;SDS011;9503;53.560;10.246;2023-12-22T07:41:22;23.13;;;3.00;;
18748;SDS011;9503;53.560;10.246;2023-12-22T07:43:48;14.87;;;3.77;;
18748;SDS011;9503;53.560;10.246;2023-12-22T07:46:18;18.07;;;3.47;;
18748;SDS011;9503;53.560;10.246;2023-12-22T07:48:47;13.13;;;3.13;;
18748;SDS011;9503;53.560;10.246;2023-12-22T07:51:13;20.03;;;4.23;;
18748;SDS011;9503;53.560;10.246;2023-12-22T07:53:40;19.57;;;4.33;;
18748;SDS011;9503;53.560;10.246;2023-12-22T07:56:07;15.47;;;4.10;;
18748;SDS011;9503;53.560;10.246;2023-12-22T07:58:35;21.87;;;4.87;;
18748;SDS011;9503;53.560;10.246;2023-12-22T08:01:03;14.23;;;3.53;;
18748;SDS011;9503;53.560;10.246;2023-12-22T08:03:30;21.27;;;3.63;;
18748;SDS011;9503;53.560;10.246;2023-12-22T08:05:58;15.20;;;3.23;;
18748;SDS011;9503;53.560;10.246;2023-12-22T08:08:25;15.57;;;3.30;;
18748;SDS011;9503;53.560;10.246;2023-12-22T08:10:51;12.90;;;3.53;;
18748;SDS011;9503;53.560;10.246;2023-12-22T08:13:18;15.43;;;3.13;;
18748;SDS011;9503;53.560;10.246;2023-12-22T08:15:44;17.87;;;3.10;;
18748;SDS011;9503;53.560;10.246;2023-12-22T08:18:11;21.63;;;2.67;;
18748;SDS011;9503;53.560;10.246;2023-12-22T08:20:38;21.23;;;2.73;;
18748;SDS011;9503;53.560;10.246;2023-12-22T08:23:06;13.80;;;2.90;;
18748;SDS011;9503;53.560;10.246;2023-12-22T08:25:32;8.43;;;2.47;;
18748;SDS011;9503;53.560;10.246;2023-12-22T08:27:59;17.50;;;2.60;;
18748;SDS011;9503;53.560;10.246;2023-12-22T08:30:26;6.03;;;2.40;;
18748;SDS011;9503;53.560;10.246;2023-12-22T08:32:52;12.67;;;2.30;;
18748;SDS011;9503;53.560;10.246;2023-12-22T08:35:19;10.80;;;2.60;;
18748;SDS011;9503;53.560;10.246;2023-12-22T08:37:46;8.97;;;2.63;;
18748;SDS011;9503;53.560;10.246;2023-12-22T08:40:14;12.13;;;2.80;;
18748;SDS011;9503;53.560;10.246;2023-12-22T08:42:41;17.23;;;2.60;;
18748;SDS011;9503;53.560;10.246;2023-12-22T08:45:08;20.83;;;2.40;;
18748;SDS011;9503;53.560;10.246;2023-12-22T08:47:34;13.33;;;2.33;;
18748;SDS011;9503;53.560;10.246;2023-12-22T08:50:01;12.17;;;2.50;;
18748;SDS011;9503;53.560;10.246;2023-12-22T08:52:29;16.63;;;2.60;;
18748;SDS011;9503;53.560;10.246;2023-12-22T08:54:56;11.27;;;2.17;;
18748;SDS011;9503;53.560;10.246;2023-12-22T08:57:24;22.50;;;2.77;;
18748;SDS011;9503;53.560;10.246;2023-12-22T08:59:52;16.67;;;2.50;;
18748;SDS011;9503;53.560;10.246;2023-12-22T09:02:19;19.47;;;2.90;;
18748;SDS011;9503;53.560;10.246;2023-12-22T09:04:46;11.43;;;2.23;;
18748;SDS011;9503;53.560;10.246;2023-12-22T09:07:12;14.40;;;3.43;;
18748;SDS011;9503;53.560;10.246;2023-12-22T09:09:39;14.70;;;2.80;;
18748;SDS011;9503;53.560;10.246;2023-12-22T09:12:06;21.03;;;2.97;;
18748;SDS011;9503;53.560;10.246;2023-12-22T09:14:34;11.53;;;2.57;;
18748;SDS011;9503;53.560;10.246;2023-12-22T09:17:01;14.27;;;2.87;;
18748;SDS011;9503;53.560;10.246;2023-12-22T09:19:27;20.90;;;2.80;;
18748;SDS011;9503;53.560;10.246;2023-12-22T09:21:54;11.50;;;2.37;;
18748;SDS011;9503;53.560;10.246;2023-12-22T09:24:20;5.53;;;2.20;;
18748;SDS011;9503;53.560;10.246;2023-12-22T09:26:47;8.33;;;1.90;;
18748;SDS011;9503;53.560;10.246;2023-12-22T09:29:15;9.97;;;1.93;;
18748;SDS011;9503;53.560;10.246;2023-12-22T09:31:43;7.30;;;1.97;;
18748;SDS011;9503;53.560;10.246;2023-12-22T09:34:10;10.20;;;2.07;;
18748;SDS011;9503;53.560;10.246;2023-12-22T09:36:36;9.10;;;1.87;;
18748;SDS011;9503;53.560;10.246;2023-12-22T09:39:03;13.00;;;2.13;;
18748;SDS011;9503;53.560;10.246;2023-12-22T09:41:29;8.40;;;2.27;;
18748;SDS011;9503;53.560;10.246;2023-12-22T09:43:56;7.10;;;2.07;;
18748;SDS011;9503;53.560;10.246;2023-12-22T09:46:26;8.00;;;1.90;;
18748;SDS011;9503;53.560;10.246;2023-12-22T09:48:56;9.30;;;1.80;;
18748;SDS011;9503;53.560;10.246;2023-12-22T09:51:23;13.27;;;2.30;;
18748;SDS011;9503;53.560;10.246;2023-12-22T09:53:50;5.57;;;2.00;;
18748;SDS011;9503;53.560;10.246;2023-12-22T09:56:19;9.93;;;2.20;;
18748;SDS011;9503;53.560;10.246;2023-12-22T09:58:46;5.40;;;2.00;;
18748;SDS011;9503;53.560;10.246;2023-12-22T10:01:14;17.03;;;2.30;;
18748;SDS011;9503;53.560;10.246;2023-12-22T10:03:42;11.33;;;2.40;;
18748;SDS011;9503;53.560;10.246;2023-12-22T10:06:10;12.43;;;3.07;;
18748;SDS011;9503;53.560;10.246;2023-12-22T10:08:37;9.77;;;1.87;;
18748;SDS011;9503;53.560;10.246;2023-12-22T10:11:05;8.67;;;2.20;;
18748;SDS011;9503;53.560;10.246;2023-12-22T10:13:33;15.57;;;3.80;;
18748;SDS011;9503;53.560;10.246;2023-12-22T10:16:03;13.57;;;2.93;;
18748;SDS011;9503;53.560;10.246;2023-12-22T10:18:32;13.13;;;2.20;;
18748;SDS011;9503;53.560;10.246;2023-12-22T10:20:58;9.70;;;2.60;;
18748;SDS011;9503;53.560;10.246;2023-12-22T10:23:27;17.00;;;2.23;;
18748;SDS011;9503;53.560;10.246;2023-12-22T10:25:57;14.13;;;2.57;;
18748;SDS011;9503;53.560;10.246;2023-12-22T10:28:24;11.53;;;1.97;;
18748;SDS011;9503;53.560;10.246;2023-12-22T10:30:53;16.83;;;2.70;;
18748;SDS011;9503;53.560;10.246;2023-12-22T10:33:22;15.43;;;2.27;;
18748;SDS011;9503;53.560;10.246;2023-12-22T10:35:49;9.67;;;2.07;;
18748;SDS011;9503;53.560;10.246;2023-12-22T10:38:18;10.63;;;2.57;;
18748;SDS011;9503;53.560;10.246;2023-12-22T10:40:46;13.07;;;2.93;;
18748;SDS011;9503;53.560;10.246;2023-12-22T10:43:13;14.23;;;2.47;;
18748;SDS011;9503;53.560;10.246;2023-12-22T10:45:40;11.77;;;2.03;;
18748;SDS011;9503;53.560;10.246;2023-12-22T10:48:07;17.67;;;2.73;;
18748;SDS011;9503;53.560;10.246;2023-12-22T10:50:34;11.93;;;2.50;;
18748;SDS011;9503;53.560;10.246;2023-12-22T10:53:01;13.03;;;2.33;;
18748;SDS011;9503;53.560;10.246;2023-12-22T10:55:27;11.90;;;2.67;;
18748;SDS011;9503;53.560;10.246;2023-12-22T10:57:55;12.20;;;2.10;;
18748;SDS011;9503;53.560;10.246;2023-12-22T11:00:22;9.30;;;2.40;;
18748;SDS011;9503;53.560;10.246;2023-12-22T11:02:49;11.23;;;3.23;;
18748;SDS011;9503;53.560;10.246;2023-12-22T11:05:25;8.47;;;2.10;;
18748;SDS011;9503;53.560;10.246;2023-12-22T11:07:54;15.47;;;2.80;;
18748;SDS011;9503;53.560;10.246;2023-12-22T11:10:26;9.90;;;2.40;;
18748;SDS011;9503;53.560;10.246;2023-12-22T11:12:54;12.63;;;2.30;;
18748;SDS011;9503;53.560;10.246;2023-12-22T11:15:24;14.20;;;2.43;;
18748;SDS011;9503;53.560;10.246;2023-12-22T11:17:52;10.83;;;2.90;;
18748;SDS011;9503;53.560;10.246;2023-12-22T11:20:21;11.07;;;2.30;;
18748;SDS011;9503;53.560;10.246;2023-12-22T11:22:50;6.23;;;2.40;;
18748;SDS011;9503;53.560;10.246;2023-12-22T11:25:18;14.33;;;2.63;;
18748;SDS011;9503;53.560;10.246;2023-12-22T11:27:47;11.60;;;2.23;;
18748;SDS011;9503;53.560;10.246;2023-12-22T11:30:19;16.37;;;2.77;;
18748;SDS011;9503;53.560;10.246;2023-12-22T11:32:48;16.33;;;2.53;;
18748;SDS011;9503;53.560;10.246;2023-12-22T11:35:15;24.53;;;2.70;;
18748;SDS011;9503;53.560;10.246;2023-12-22T11:37:42;21.53;;;2.93;;
18748;SDS011;9503;53.560;10.246;2023-12-22T11:40:09;19.60;;;2.57;;
18748;SDS011;9503;53.560;10.246;2023-12-22T11:42:38;9.10;;;3.07;;
18748;SDS011;9503;53.560;10.246;2023-12-22T11:45:09;9.07;;;1.93;;
18748;SDS011;9503;53.560;10.246;2023-12-22T11:47:38;14.73;;;2.20;;
18748;SDS011;9503;53.560;10.246;2023-12-22T11:50:08;18.23;;;2.00;;
18748;SDS011;9503;53.560;10.246;2023-12-22T11:52:36;10.20;;;2.43;;
18748;SDS011;9503;53.560;10.246;2023-12-22T11:55:02;16.77;;;3.77;;
18748;SDS011;9503;53.560;10.246;2023-12-22T11:57:30;17.10;;;2.50;;
18748;SDS011;9503;53.560;10.246;2023-12-22T12:00:04;11.27;;;2.63;;
18748;SDS011;9503;53.560;10.246;2023-12-22T12:02:33;7.67;;;2.20;;
18748;SDS011;9503;53.560;10.246;2023-12-22T12:05:04;13.33;;;2.70;;
18748;SDS011;9503;53.560;10.246;2023-12-22T12:07:37;9.93;;;2.40;;
18748;SDS011;9503;53.560;10.246;2023-12-22T12:10:05;14.23;;;2.53;;
18748;SDS011;9503;53.560;10.246;2023-12-22T12:12:32;11.90;;;2.93;;
18748;SDS011;9503;53.560;10.246;2023-12-22T12:15:02;10.17;;;2.37;;
18748;SDS011;9503;53.560;10.246;2023-12-22T12:17:33;10.63;;;2.43;;
18748;SDS011;9503;53.560;10.246;2023-12-22T12:20:06;12.67;;;2.97;;
18748;SDS011;9503;53.560;10.246;2023-12-22T12:22:35;8.33;;;2.67;;
18748;SDS011;9503;53.560;10.246;2023-12-22T12:25:03;11.00;;;2.33;;
18748;SDS011;9503;53.560;10.246;2023-12-22T12:27:34;11.27;;;2.10;;
18748;SDS011;9503;53.560;10.246;2023-12-22T12:30:06;11.67;;;2.07;;
18748;SDS011;9503;53.560;10.246;2023-12-22T12:32:35;12.10;;;2.43;;
18748;SDS011;9503;53.560;10.246;2023-12-22T12:35:02;18.67;;;3.27;;
18748;SDS011;9503;53.560;10.246;2023-12-22T12:37:31;17.37;;;2.57;;
18748;SDS011;9503;53.560;10.246;2023-12-22T12:39:58;8.93;;;2.10;;
18748;SDS011;9503;53.560;10.246;2023-12-22T12:42:27;13.13;;;3.17;;
18748;SDS011;9503;53.560;10.246;2023-12-22T12:44:55;10.20;;;2.40;;
18748;SDS011;9503;53.560;10.246;2023-12-22T12:47:22;9.73;;;2.03;;
18748;SDS011;9503;53.560;10.246;2023-12-22T12:49:56;13.07;;;2.10;;
18748;SDS011;9503;53.560;10.246;2023-12-22T12:52:23;12.07;;;2.57;;
18748;SDS011;9503;53.560;10.246;2023-12-22T12:54:52;8.00;;;2.93;;
18748;SDS011;9503;53.560;10.246;2023-12-22T12:57:19;10.53;;;2.40;;
18748;SDS011;9503;53.560;10.246;2023-12-22T12:59:46;19.93;;;3.10;;
18748;SDS011;9503;53.560;10.246;2023-12-22T13:02:14;8.57;;;2.10;;
18748;SDS011;9503;53.560;10.246;2023-12-22T13:04:41;7.13;;;2.47;;
18748;SDS011;9503;53.560;10.246;2023-12-22T13:07:08;12.63;;;2.23;;
18748;SDS011;9503;53.560;10.246;2023-12-22T13:09:38;6.20;;;2.07;;
18748;SDS011;9503;53.560;10.246;2023-12-22T13:12:08;10.30;;;1.93;;
18748;SDS011;9503;53.560;10.246;2023-12-22T13:14:35;3.73;;;1.50;;
18748;SDS011;9503;53.560;10.246;2023-12-22T13:17:02;8.07;;;1.57;;
18748;SDS011;9503;53.560;10.246;2023-12-22T13:19:31;5.37;;;1.53;;
18748;SDS011;9503;53.560;10.246;2023-12-22T13:21:58;7.93;;;1.90;;
18748;SDS011;9503;53.560;10.246;2023-12-22T13:24:25;9.27;;;1.77;;
18748;SDS011;9503;53.560;10.246;2023-12-22T13:26:59;9.17;;;1.63;;
18748;SDS011;9503;53.560;10.246;2023-12-22T13:29:28;4.20;;;1.70;;
18748;SDS011;9503;53.560;10.246;2023-12-22T13:31:55;13.13;;;2.93;;
18748;SDS011;9503;53.560;10.246;2023-12-22T13:34:23;4.83;;;1.63;;
18748;SDS011;9503;53.560;10.246;2023-12-22T13:36:50;11.60;;;2.30;;
18748;SDS011;9503;53.560;10.246;2023-12-22T13:39:17;15.30;;;3.53;;
18748;SDS011;9503;53.560;10.246;2023-12-22T13:41:43;12.57;;;2.57;;
18748;SDS011;9503;53.560;10.246;2023-12-22T13:44:11;6.50;;;2.00;;
18748;SDS011;9503;53.560;10.246;2023-12-22T13:46:39;16.43;;;2.83;;
18748;SDS011;9503;53.560;10.246;2023-12-22T13:49:08;5.37;;;2.33;;
18748;SDS011;9503;53.560;10.246;2023-12-22T13:51:38;10.80;;;2.23;;
18748;SDS011;9503;53.560;10.246;2023-12-22T13:54:08;15.47;;;2.10;;
18748;SDS011;9503;53.560;10.246;2023-12-22T13:56:35;12.20;;;2.47;;
18748;SDS011;9503;53.560;10.246;2023-12-22T13:59:05;13.53;;;1.80;;
18748;SDS011;9503;53.560;10.246;2023-12-22T14:01:32;8.63;;;1.50;;
18748;SDS011;9503;53.560;10.246;2023-12-22T14:04:00;8.97;;;1.90;;
18748;SDS011;9503;53.560;10.246;2023-12-22T14:06:29;3.80;;;2.00;;
18748;SDS011;9503;53.560;10.246;2023-12-22T14:08:56;5.77;;;1.57;;
18748;SDS011;9503;53.560;10.246;2023-12-22T14:11:23;13.27;;;2.17;;
18748;SDS011;9503;53.560;10.246;2023-12-22T14:13:49;7.33;;;2.17;;
18748;SDS011;9503;53.560;10.246;2023-12-22T14:16:16;6.90;;;1.80;;
18748;SDS011;9503;53.560;10.246;2023-12-22T14:18:43;12.23;;;1.73;;
18748;SDS011;9503;53.560;10.246;2023-12-22T14:21:11;8.53;;;1.93;;
18748;SDS011;9503;53.560;10.246;2023-12-22T14:23:38;19.03;;;2.63;;
18748;SDS011;9503;53.560;10.246;2023-12-22T14:26:04;2.57;;;1.60;;
18748;SDS011;9503;53.560;10.246;2023-12-22T14:28:31;9.33;;;2.27;;
18748;SDS011;9503;53.560;10.246;2023-12-22T14:30:58;8.40;;;2.03;;
18748;SDS011;9503;53.560;10.246;2023-12-22T14:33:24;12.13;;;2.00;;
18748;SDS011;9503;53.560;10.246;2023-12-22T14:35:52;11.43;;;2.10;;
18748;SDS011;9503;53.560;10.246;2023-12-22T14:38:18;8.40;;;1.90;;
18748;SDS011;9503;53.560;10.246;2023-12-22T14:40:45;12.13;;;2.33;;
18748;SDS011;9503;53.560;10.246;2023-12-22T14:43:12;13.93;;;2.00;;